createdAt,value
2023-03-22T00:01:58.768Z,62.90
2023-03-22T00:04:26.348Z,63.40
2023-03-22T00:06:52.863Z,64.00
2023-03-22T00:09:19.364Z,63.60
2023-03-22T00:11:46.200Z,63.40
2023-03-22T00:14:12.774Z,63.20
2023-03-22T00:16:39.344Z,63.00
2023-03-22T00:19:05.853Z,63.00
2023-03-22T00:21:32.370Z,63.00
2023-03-22T00:23:59.039Z,63.00
2023-03-22T00:26:25.591Z,63.00
2023-03-22T00:28:52.100Z,62.80
2023-03-22T00:31:19.960Z,62.90
2023-03-22T00:33:46.549Z,62.80
2023-03-22T00:36:13.350Z,62.90
2023-03-22T00:38:44.293Z,62.80
2023-03-22T00:41:12.979Z,62.70
2023-03-22T00:43:39.783Z,62.70
2023-03-22T00:46:06.562Z,62.70
2023-03-22T00:48:33.366Z,62.60
2023-03-22T00:50:59.887Z,63.30
2023-03-22T00:53:26.455Z,62.60
2023-03-22T00:55:53.095Z,62.50
2023-03-22T00:58:19.598Z,62.40
2023-03-22T01:00:46.203Z,62.60
2023-03-22T01:03:14.215Z,62.40
2023-03-22T01:05:40.804Z,62.40
2023-03-22T01:08:10.327Z,62.30
2023-03-22T01:10:41.261Z,62.40
2023-03-22T01:13:08.224Z,62.30
2023-03-22T01:15:35.238Z,62.30
2023-03-22T01:18:01.788Z,62.20
2023-03-22T01:20:30.647Z,62.30
2023-03-22T01:22:57.235Z,62.90
2023-03-22T01:25:24.121Z,62.20
2023-03-22T01:27:50.833Z,62.20
2023-03-22T01:30:17.530Z,62.10
2023-03-22T01:32:44.131Z,62.10
2023-03-22T01:35:10.789Z,62.10
2023-03-22T01:37:37.428Z,62.00
2023-03-22T01:40:04.624Z,61.90
2023-03-22T01:42:31.201Z,61.90
2023-03-22T01:45:13.052Z,62.00
2023-03-22T01:47:47.752Z,62.00
2023-03-22T01:50:14.591Z,61.80
2023-03-22T01:52:41.284Z,61.90
2023-03-22T01:55:09.285Z,61.90
2023-03-22T01:57:39.255Z,62.10
2023-03-22T02:00:13.188Z,61.90
2023-03-22T02:02:39.742Z,61.90
2023-03-22T02:05:06.407Z,61.80
2023-03-22T02:07:33.182Z,61.70
2023-03-22T02:09:59.847Z,61.80
2023-03-22T02:12:32.338Z,61.70
2023-03-22T02:15:07.969Z,61.70
2023-03-22T02:17:53.379Z,61.70
2023-03-22T02:20:39.908Z,61.70
2023-03-22T02:23:06.572Z,61.60
2023-03-22T02:25:33.158Z,62.40
2023-03-22T02:28:13.909Z,61.60
2023-03-22T02:31:00.109Z,61.60
2023-03-22T02:33:41.530Z,61.50
2023-03-22T02:36:22.292Z,61.60
2023-03-22T02:39:04.287Z,61.50
2023-03-22T02:41:39.670Z,61.50
2023-03-22T02:44:15.330Z,61.50
2023-03-22T02:46:56.382Z,61.50
2023-03-22T02:49:49.370Z,61.40
2023-03-22T02:52:23.910Z,61.40
2023-03-22T02:54:54.199Z,61.40
2023-03-22T02:57:28.932Z,61.30
2023-03-22T02:59:56.654Z,61.30
2023-03-22T03:02:24.685Z,61.30
2023-03-22T03:04:52.740Z,61.20
2023-03-22T03:07:22.601Z,61.20
2023-03-22T03:09:50.193Z,61.20
2023-03-22T03:12:21.354Z,61.10
2023-03-22T03:14:48.093Z,61.10
2023-03-22T03:17:23.507Z,61.20
2023-03-22T03:19:57.392Z,61.20
2023-03-22T03:22:42.524Z,61.20
2023-03-22T03:25:43.185Z,61.10
2023-03-22T03:28:15.457Z,61.10
2023-03-22T03:30:48.447Z,61.10
2023-03-22T03:33:17.570Z,61.00
2023-03-22T03:35:48.412Z,61.00
2023-03-22T03:38:18.483Z,61.00
2023-03-22T03:40:47.161Z,61.00
2023-03-22T03:43:14.122Z,61.00
2023-03-22T03:45:40.783Z,61.00
2023-03-22T03:48:17.329Z,60.90
2023-03-22T03:50:43.913Z,60.90
2023-03-22T03:53:10.626Z,60.90
2023-03-22T03:55:37.674Z,60.80
2023-03-22T03:58:04.186Z,60.80
2023-03-22T04:00:31.034Z,60.80
2023-03-22T04:02:57.529Z,60.70
2023-03-22T04:05:24.043Z,60.70
2023-03-22T04:07:50.631Z,60.70
2023-03-22T04:10:17.161Z,60.70
2023-03-22T04:12:43.851Z,60.70
2023-03-22T04:15:12.081Z,60.70
2023-03-22T04:17:39.498Z,60.70
2023-03-22T04:20:07.020Z,60.60
2023-03-22T04:22:38.542Z,60.60
2023-03-22T04:25:06.060Z,60.50
2023-03-22T04:27:32.630Z,60.50
2023-03-22T04:30:00.888Z,60.50
2023-03-22T04:32:27.494Z,60.40
2023-03-22T04:34:54.047Z,60.40
2023-03-22T04:37:22.524Z,60.30
2023-03-22T04:39:49.052Z,60.40
2023-03-22T04:42:15.691Z,60.30
2023-03-22T04:44:42.256Z,60.30
2023-03-22T04:47:08.829Z,60.30
2023-03-22T04:49:35.549Z,60.20
2023-03-22T04:52:02.061Z,60.20
2023-03-22T04:54:28.612Z,60.20
2023-03-22T04:56:55.448Z,60.30
2023-03-22T04:59:22.049Z,60.20
2023-03-22T05:01:49.352Z,60.20
2023-03-22T05:04:16.694Z,60.20
2023-03-22T05:06:43.303Z,60.20
2023-03-22T05:09:10.078Z,60.00
2023-03-22T05:11:36.583Z,60.10
2023-03-22T05:14:03.421Z,60.10
2023-03-22T05:16:30.161Z,60.00
2023-03-22T05:18:56.829Z,60.00
2023-03-22T05:21:28.256Z,60.00
2023-03-22T05:23:55.654Z,60.00
2023-03-22T05:26:24.421Z,59.90
2023-03-22T05:28:51.400Z,59.90
2023-03-22T05:31:18.089Z,59.90
2023-03-22T05:33:46.548Z,59.90
2023-03-22T05:36:13.088Z,59.80
2023-03-22T05:38:39.669Z,59.80
2023-03-22T05:41:06.281Z,59.80
2023-03-22T05:43:32.777Z,59.80
2023-03-22T05:45:59.344Z,59.80
2023-03-22T05:48:25.956Z,59.70
2023-03-22T05:50:52.469Z,59.70
2023-03-22T05:53:18.977Z,59.70
2023-03-22T05:55:46.028Z,59.70
2023-03-22T05:58:12.884Z,59.70
2023-03-22T06:00:40.114Z,59.70
2023-03-22T06:03:07.065Z,49.50
2023-03-22T06:05:36.357Z,49.60
2023-03-22T06:08:03.127Z,50.40
2023-03-22T06:10:30.374Z,50.80
2023-03-22T06:12:56.943Z,50.90
2023-03-22T06:15:23.487Z,52.40
2023-03-22T06:17:50.014Z,52.50
2023-03-22T06:20:16.682Z,53.40
2023-03-22T06:22:43.380Z,53.50
2023-03-22T06:25:10.885Z,53.10
2023-03-22T06:27:37.807Z,53.10
2023-03-22T06:30:04.514Z,53.10
2023-03-22T06:32:31.031Z,53.20
2023-03-22T06:34:57.643Z,53.30
2023-03-22T06:37:25.008Z,53.40
2023-03-22T06:39:52.145Z,53.50
2023-03-22T06:42:18.689Z,53.60
2023-03-22T06:44:45.303Z,53.80
2023-03-22T06:47:12.178Z,53.90
2023-03-22T06:49:39.073Z,54.40
2023-03-22T06:52:06.072Z,54.10
2023-03-22T06:54:32.733Z,54.30
2023-03-22T06:56:59.311Z,54.40
2023-03-22T06:59:26.088Z,54.70
2023-03-22T07:01:52.686Z,54.80
2023-03-22T07:04:19.955Z,54.80
2023-03-22T07:06:46.752Z,54.90
2023-03-22T07:09:13.329Z,55.20
2023-03-22T07:11:39.906Z,55.20
2023-03-22T07:14:08.625Z,55.30
2023-03-22T07:16:35.241Z,55.30
2023-03-22T07:19:01.856Z,55.40
2023-03-22T07:21:28.407Z,55.50
2023-03-22T07:23:55.448Z,55.40
2023-03-22T07:26:22.069Z,55.60
2023-03-22T07:28:48.634Z,55.60
2023-03-22T07:31:15.638Z,55.70
2023-03-22T07:33:42.552Z,55.70
2023-03-22T07:36:09.550Z,55.90
2023-03-22T07:38:36.449Z,55.80
2023-03-22T07:41:03.228Z,55.90
2023-03-22T07:43:29.770Z,55.90
2023-03-22T07:45:56.592Z,56.00
2023-03-22T07:48:23.752Z,56.00
2023-03-22T07:50:54.333Z,56.00
2023-03-22T07:53:20.879Z,56.10
2023-03-22T07:55:47.770Z,56.10
2023-03-22T07:58:14.927Z,56.20
2023-03-22T08:00:41.811Z,56.30
2023-03-22T08:03:10.564Z,56.30
2023-03-22T08:05:39.587Z,56.30
2023-03-22T08:08:06.469Z,56.30
2023-03-22T08:10:32.994Z,56.30
2023-03-22T08:12:59.537Z,56.30
2023-03-22T08:15:26.200Z,56.50
2023-03-22T08:17:52.934Z,56.50
2023-03-22T08:20:19.678Z,56.30
2023-03-22T08:22:46.283Z,56.40
2023-03-22T08:25:12.851Z,56.40
2023-03-22T08:27:39.401Z,56.50
2023-03-22T08:30:06.413Z,56.60
2023-03-22T08:32:33.213Z,56.60
2023-03-22T08:34:59.833Z,56.50
2023-03-22T08:37:26.338Z,56.70
2023-03-22T08:39:52.859Z,56.60
2023-03-22T08:42:19.448Z,56.60
2023-03-22T08:44:46.123Z,56.70
2023-03-22T08:47:12.993Z,57.20
2023-03-22T08:49:39.505Z,56.70
2023-03-22T08:52:07.368Z,56.80
2023-03-22T08:54:36.870Z,56.70
2023-03-22T08:57:03.721Z,56.80
2023-03-22T08:59:30.395Z,56.90
2023-03-22T09:01:57.031Z,56.90
2023-03-22T09:04:23.867Z,57.00
2023-03-22T09:06:50.692Z,56.90
2023-03-22T09:09:17.266Z,57.00
2023-03-22T09:11:44.769Z,57.00
2023-03-22T09:14:11.293Z,56.90
2023-03-22T09:16:37.923Z,56.90
2023-03-22T09:19:04.672Z,57.00
2023-03-22T09:21:31.368Z,57.20
2023-03-22T09:23:57.979Z,57.10
2023-03-22T09:26:25.633Z,57.00
2023-03-22T09:28:52.336Z,57.10
2023-03-22T09:31:20.569Z,57.10
2023-03-22T09:33:47.441Z,57.10
2023-03-22T09:36:14.096Z,57.10
2023-03-22T09:38:42.053Z,57.10
2023-03-22T09:41:12.439Z,57.10
2023-03-22T09:43:43.779Z,57.00
2023-03-22T09:46:14.917Z,57.10
2023-03-22T09:48:42.820Z,57.00
2023-03-22T09:51:30.787Z,57.00
2023-03-22T09:53:57.418Z,57.10
2023-03-22T09:56:25.969Z,57.70
2023-03-22T09:58:52.615Z,57.20
2023-03-22T10:01:26.614Z,57.20
2023-03-22T10:04:05.589Z,57.30
2023-03-22T10:06:32.505Z,57.30
2023-03-22T10:09:09.042Z,57.20
2023-03-22T10:12:11.260Z,57.20
2023-03-22T10:14:42.146Z,57.30
2023-03-22T10:17:11.624Z,56.80
2023-03-22T10:19:50.484Z,57.30
2023-03-22T10:22:18.436Z,57.10
2023-03-22T10:24:46.270Z,57.10
2023-03-22T10:27:17.347Z,57.20
2023-03-22T10:29:48.693Z,57.30
2023-03-22T10:32:56.733Z,57.30
2023-03-22T10:35:24.220Z,57.40
2023-03-22T10:37:51.710Z,57.30
2023-03-22T10:40:36.791Z,57.30
2023-03-22T10:43:09.543Z,57.20
2023-03-22T10:45:36.902Z,57.20
2023-03-22T10:48:13.858Z,57.20
2023-03-22T10:50:42.956Z,56.90
2023-03-22T10:53:25.539Z,55.90
2023-03-22T10:55:52.153Z,55.90
2023-03-22T10:58:19.665Z,56.20
2023-03-22T11:00:50.390Z,51.40
2023-03-22T11:03:28.895Z,49.70
2023-03-22T11:06:10.614Z,48.20
2023-03-22T11:08:46.686Z,48.60
2023-03-22T11:11:33.493Z,47.90
2023-03-22T11:14:18.794Z,48.00
2023-03-22T11:17:00.852Z,48.30
2023-03-22T11:19:28.973Z,50.60
2023-03-22T11:21:57.342Z,52.40
2023-03-22T11:24:27.559Z,52.60
2023-03-22T11:27:07.909Z,52.70
2023-03-22T11:29:43.594Z,50.20
2023-03-22T11:32:21.188Z,52.10
2023-03-22T11:34:47.821Z,52.60
2023-03-22T11:37:18.218Z,52.70
2023-03-22T11:39:49.622Z,52.80
2023-03-22T11:42:18.508Z,53.00
2023-03-22T11:44:45.167Z,53.10
2023-03-22T11:47:13.160Z,53.20
2023-03-22T11:49:44.210Z,53.30
2023-03-22T11:52:14.700Z,53.50
2023-03-22T11:54:42.350Z,53.60
2023-03-22T11:57:15.638Z,53.60
2023-03-22T11:59:47.088Z,53.80
2023-03-22T12:02:23.678Z,54.10
2023-03-22T12:04:53.348Z,54.00
2023-03-22T12:07:21.937Z,54.10
2023-03-22T12:10:03.645Z,54.20
2023-03-22T12:12:33.293Z,54.90
2023-03-22T12:15:02.915Z,54.40
2023-03-22T12:17:36.153Z,54.60
2023-03-22T12:20:03.885Z,54.70
2023-03-22T12:22:34.901Z,54.80
2023-03-22T12:25:03.424Z,54.80
2023-03-22T12:27:37.406Z,54.80
2023-03-22T12:30:12.186Z,55.00
2023-03-22T12:32:48.781Z,55.00
2023-03-22T12:35:18.502Z,55.10
2023-03-22T12:37:48.046Z,55.10
2023-03-22T12:40:20.773Z,55.20
2023-03-22T12:42:58.192Z,55.30
2023-03-22T12:45:27.800Z,55.20
2023-03-22T12:48:01.043Z,55.30
2023-03-22T12:50:41.839Z,55.40
2023-03-22T12:53:12.642Z,55.50
2023-03-22T12:55:40.056Z,55.50
2023-03-22T12:58:07.773Z,55.60
2023-03-22T13:00:42.978Z,55.50
2023-03-22T13:03:15.500Z,55.70
2023-03-22T13:05:42.351Z,50.50
2023-03-22T13:08:10.203Z,48.80
2023-03-22T13:10:38.585Z,54.70
2023-03-22T13:13:12.105Z,55.40
2023-03-22T13:15:42.480Z,55.40
2023-03-22T13:18:23.306Z,54.90
2023-03-22T13:21:07.965Z,54.50
2023-03-22T13:23:34.519Z,54.30
2023-03-22T13:26:03.006Z,54.30
2023-03-22T13:28:30.872Z,54.40
2023-03-22T13:30:58.805Z,54.50
2023-03-22T13:33:27.688Z,54.60
2023-03-22T13:36:07.373Z,54.60
2023-03-22T13:38:35.530Z,54.70
2023-03-22T13:41:03.800Z,54.80
2023-03-22T13:43:39.189Z,54.80
2023-03-22T13:46:26.046Z,55.40
2023-03-22T13:49:01.932Z,54.90
2023-03-22T13:51:31.667Z,54.90
2023-03-22T13:54:07.540Z,55.00
2023-03-22T13:56:47.637Z,55.00
2023-03-22T13:59:19.304Z,55.10
2023-03-22T14:01:50.226Z,55.00
2023-03-22T14:04:22.560Z,55.80
2023-03-22T14:06:52.364Z,55.40
2023-03-22T14:09:32.465Z,55.60
2023-03-22T14:12:17.762Z,55.60
2023-03-22T14:14:46.943Z,55.70
2023-03-22T14:17:21.276Z,55.70
2023-03-22T14:19:49.131Z,55.80
